Terminal Aerodrome Forecast
Issued by NWS

Home | Current Version | Previous Version | Text Only | Print | Product List | Glossary On
Versions: 1 2 3 4 5 6 7 8 9 10 11 12
032
FTUS43 KMQT 022332
TAFSAW
TAF
KSAW 022332Z 0300/0324 01005KT P6SM SKC
     FM030500 21003KT P6SM SKC
     FM031300 24007KT P6SM SCT150
     FM031700 24010G15KT P6SM -SHRA OVC090
     FM032100 27005KT P6SM VCSH OVC045=

USA.gov is the U.S. government's official web portal to all federal, state and local government web resources and services.